createdAt,value
2023-03-24T00:01:26.923Z,99828.34
2023-03-24T00:03:55.204Z,99823.61
2023-03-24T00:06:23.686Z,99820.53
2023-03-24T00:08:53.448Z,99818.29
2023-03-24T00:11:22.084Z,99811.80
2023-03-24T00:13:50.949Z,99811.77
2023-03-24T00:16:20.105Z,99808.08
2023-03-24T00:18:53.907Z,99804.39
2023-03-24T00:21:25.178Z,99806.34
2023-03-24T00:23:55.606Z,99805.71
2023-03-24T00:26:25.675Z,99803.11
2023-03-24T00:28:55.760Z,99805.71
2023-03-24T00:31:25.578Z,99808.77
2023-03-24T00:33:54.855Z,99806.36
2023-03-24T00:36:26.443Z,99805.10
2023-03-24T00:38:56.854Z,99800.67
2023-03-24T00:41:27.408Z,99799.73
2023-03-24T00:43:58.715Z,99794.69
2023-03-24T00:46:28.219Z,99794.20
2023-03-24T00:49:03.016Z,99788.05
2023-03-24T00:51:39.694Z,99790.85
2023-03-24T00:54:10.644Z,99789.11
2023-03-24T00:56:40.826Z,99793.85
2023-03-24T00:59:10.734Z,99796.70
2023-03-24T01:01:41.415Z,99795.59
2023-03-24T01:04:10.674Z,99799.70
2023-03-24T01:06:40.176Z,99803.30
2023-03-24T01:09:08.636Z,99805.10
2023-03-24T01:11:41.561Z,99809.46
2023-03-24T01:14:12.072Z,99808.52
2023-03-24T01:16:42.408Z,99807.60
2023-03-24T01:19:10.894Z,99812.45
2023-03-24T01:21:40.341Z,99812.91
2023-03-24T01:24:09.212Z,99811.15
2023-03-24T01:26:37.483Z,99814.82
2023-03-24T01:29:06.268Z,99817.13
2023-03-24T01:31:35.967Z,99819.73
2023-03-24T01:34:04.823Z,99816.51
2023-03-24T01:36:33.015Z,99818.27
2023-03-24T01:39:01.641Z,99817.77
2023-03-24T01:41:35.228Z,99818.48
2023-03-24T01:44:31.844Z,99821.00
2023-03-24T01:47:01.728Z,99819.90
2023-03-24T01:49:35.874Z,99820.52
2023-03-24T01:52:10.001Z,99822.82
2023-03-24T01:55:11.362Z,99821.30
2023-03-24T01:57:48.357Z,99818.66
2023-03-24T02:00:19.606Z,99818.30
2023-03-24T02:03:14.943Z,99824.33
2023-03-24T02:05:51.932Z,99821.95
2023-03-24T02:08:28.843Z,99821.73
2023-03-24T02:10:58.183Z,99822.71
2023-03-24T02:13:29.605Z,99824.34
2023-03-24T02:16:13.025Z,99826.38
2023-03-24T02:19:12.816Z,99828.63
2023-03-24T02:22:19.103Z,99825.68
2023-03-24T02:25:21.892Z,99814.95
2023-03-24T02:28:15.845Z,99814.59
2023-03-24T02:31:02.486Z,99812.33
2023-03-24T02:33:53.338Z,99810.41
2023-03-24T02:36:21.999Z,99812.64
2023-03-24T02:39:28.395Z,99813.38
2023-03-24T02:41:59.741Z,99809.59
2023-03-24T02:44:46.859Z,99812.19
2023-03-24T02:47:54.657Z,99809.36
2023-03-24T02:50:31.606Z,99811.32
2023-03-24T02:53:15.621Z,99816.79
2023-03-24T02:56:01.742Z,99818.02
2023-03-24T02:58:39.013Z,99820.70
2023-03-24T03:01:15.284Z,99825.06
2023-03-24T03:04:14.160Z,99826.31
2023-03-24T03:06:49.227Z,99822.36
2023-03-24T03:09:19.559Z,99814.61
2023-03-24T03:11:51.844Z,99813.89
2023-03-24T03:14:32.942Z,99816.46
2023-03-24T03:17:06.619Z,99816.25
2023-03-24T03:19:43.962Z,99820.45
2023-03-24T03:22:18.134Z,99827.16
2023-03-24T03:24:53.351Z,99834.92
2023-03-24T03:27:29.277Z,99836.31
2023-03-24T03:30:07.114Z,99839.29
2023-03-24T03:32:40.245Z,99839.17
2023-03-24T03:35:14.826Z,99839.92
2023-03-24T03:37:44.854Z,99839.04
2023-03-24T03:40:20.677Z,99842.77
2023-03-24T03:42:52.084Z,99843.91
2023-03-24T03:45:20.407Z,99843.48
2023-03-24T03:47:49.255Z,99844.75
2023-03-24T03:50:17.643Z,99846.53
2023-03-24T03:52:46.167Z,99848.30
2023-03-24T03:55:15.026Z,99852.33
2023-03-24T03:57:45.806Z,99860.91
2023-03-24T04:00:24.736Z,99856.64
2023-03-24T04:03:43.001Z,99851.87
2023-03-24T04:06:27.370Z,99850.80
2023-03-24T04:09:15.031Z,99845.71
2023-03-24T04:12:06.419Z,99845.92
2023-03-24T04:15:08.833Z,99850.30
2023-03-24T04:18:21.139Z,99841.73
2023-03-24T04:21:28.661Z,99846.63
2023-03-24T04:24:27.699Z,99846.30
2023-03-24T04:27:14.816Z,99848.98
2023-03-24T04:29:56.993Z,99854.98
2023-03-24T04:32:43.610Z,99861.80
2023-03-24T04:35:26.688Z,99869.31
2023-03-24T04:38:27.885Z,99870.92
2023-03-24T04:41:18.317Z,99873.54
2023-03-24T04:43:55.201Z,99872.73
2023-03-24T04:46:25.129Z,99879.19
2023-03-24T04:48:58.048Z,99882.27
2023-03-24T04:51:35.807Z,99885.67
2023-03-24T04:54:06.556Z,99884.20
2023-03-24T04:56:48.519Z,99887.71
2023-03-24T04:59:24.799Z,99881.39
2023-03-24T05:01:53.137Z,99885.15
2023-03-24T05:04:26.688Z,99882.09
2023-03-24T05:06:55.324Z,99887.75
2023-03-24T05:09:26.308Z,99892.52
2023-03-24T05:11:54.456Z,99894.84
2023-03-24T05:14:24.074Z,99892.12
2023-03-24T05:16:52.465Z,99888.55
2023-03-24T05:19:21.811Z,99892.24
2023-03-24T05:21:51.868Z,99897.14
2023-03-24T05:24:21.588Z,99901.92
2023-03-24T05:26:49.723Z,99903.39
2023-03-24T05:29:20.508Z,99908.02
2023-03-24T05:31:49.521Z,99902.72
2023-03-24T05:34:21.677Z,99906.41
2023-03-24T05:37:14.655Z,99906.52
2023-03-24T05:39:43.090Z,99907.27
2023-03-24T05:42:29.823Z,99910.20
2023-03-24T05:45:03.925Z,99904.89
2023-03-24T05:47:32.363Z,99907.70
2023-03-24T05:50:01.029Z,99903.09
2023-03-24T05:52:31.833Z,99901.35
2023-03-24T05:55:11.290Z,99895.96
2023-03-24T05:57:40.923Z,99896.70
2023-03-24T06:00:57.574Z,99897.64
2023-03-24T06:03:34.671Z,99901.67
2023-03-24T06:06:16.952Z,99906.82
2023-03-24T06:08:45.463Z,99908.86
2023-03-24T06:11:14.712Z,99908.70
2023-03-24T06:13:52.653Z,99907.02
2023-03-24T06:16:24.247Z,99903.34
2023-03-24T06:18:58.849Z,99903.55
2023-03-24T06:21:50.722Z,99904.76
2023-03-24T06:24:21.774Z,99904.54
2023-03-24T06:26:50.543Z,99908.23
2023-03-24T06:29:19.504Z,99904.08
2023-03-24T06:31:49.126Z,99902.63
2023-03-24T06:34:17.964Z,99904.35
2023-03-24T06:36:53.382Z,99906.61
2023-03-24T06:39:24.042Z,99907.77
2023-03-24T06:41:52.728Z,99907.36
2023-03-24T06:44:20.978Z,99905.59
2023-03-24T06:46:49.466Z,99904.27
2023-03-24T06:49:17.694Z,99903.50
2023-03-24T06:51:45.989Z,99899.63
2023-03-24T06:54:15.099Z,99898.45
2023-03-24T06:56:43.975Z,99899.33
2023-03-24T06:59:12.519Z,99905.58
2023-03-24T07:01:40.907Z,99907.05
2023-03-24T07:04:21.896Z,99903.95
2023-03-24T07:07:22.399Z,99907.16
2023-03-24T07:09:53.325Z,99900.94
2023-03-24T07:12:21.563Z,99902.95
2023-03-24T07:14:51.083Z,99902.56
2023-03-24T07:17:19.350Z,99905.59
2023-03-24T07:20:08.568Z,99909.88
2023-03-24T07:22:42.917Z,99913.76
2023-03-24T07:25:33.849Z,99918.77
2023-03-24T07:28:14.222Z,99922.08
2023-03-24T07:30:42.592Z,99918.64
2023-03-24T07:33:12.787Z,99917.59
2023-03-24T07:35:43.641Z,99913.38
2023-03-24T07:38:12.345Z,99906.02
2023-03-24T07:40:40.867Z,99908.73
2023-03-24T07:43:09.147Z,99908.16
2023-03-24T07:46:10.948Z,99909.53
2023-03-24T07:48:40.025Z,99910.80
2023-03-24T07:51:08.398Z,99910.42
2023-03-24T07:53:48.067Z,99907.42
2023-03-24T07:56:23.043Z,99902.80
2023-03-24T07:58:55.066Z,99905.42
2023-03-24T08:01:39.489Z,99902.23
2023-03-24T08:04:14.346Z,99888.08
2023-03-24T08:07:03.291Z,99888.39
2023-03-24T08:09:31.520Z,99884.27
2023-03-24T08:12:06.950Z,99885.20
2023-03-24T08:14:42.042Z,99882.34
2023-03-24T08:17:10.342Z,99882.98
2023-03-24T08:19:45.432Z,99882.22
2023-03-24T08:22:20.678Z,99880.16
2023-03-24T08:24:48.784Z,99883.13
2023-03-24T08:27:17.172Z,99883.14
2023-03-24T08:29:45.356Z,99880.48
2023-03-24T08:32:14.044Z,99874.85
2023-03-24T08:34:42.296Z,99872.07
2023-03-24T08:37:12.223Z,99865.53
2023-03-24T08:39:40.377Z,99865.11
2023-03-24T08:42:08.570Z,99864.52
2023-03-24T08:44:36.865Z,99867.27
2023-03-24T08:47:05.137Z,99864.52
2023-03-24T08:49:33.394Z,99865.39
2023-03-24T08:52:01.582Z,99874.09
2023-03-24T08:54:29.730Z,99874.27
2023-03-24T08:56:57.932Z,99871.90
2023-03-24T08:59:26.170Z,99867.31
2023-03-24T09:01:54.334Z,99868.13
2023-03-24T09:04:22.597Z,99862.69
2023-03-24T09:06:50.849Z,99857.80
2023-03-24T09:09:19.019Z,99861.89
2023-03-24T09:11:48.912Z,99856.06
2023-03-24T09:14:17.082Z,99853.25
2023-03-24T09:16:45.844Z,99849.66
2023-03-24T09:19:14.409Z,99845.52
2023-03-24T09:21:46.308Z,99839.42
2023-03-24T09:24:15.506Z,99841.23
2023-03-24T09:26:43.644Z,99836.72
2023-03-24T09:29:12.206Z,99831.33
2023-03-24T09:31:40.423Z,99826.77
2023-03-24T09:34:08.680Z,99827.91
2023-03-24T09:36:37.052Z,99828.86
2023-03-24T09:39:05.233Z,99825.05
2023-03-24T09:41:34.500Z,99828.63
2023-03-24T09:44:06.056Z,99827.98
2023-03-24T09:47:06.837Z,99827.11
2023-03-24T09:49:38.898Z,99826.18
2023-03-24T09:52:11.194Z,99828.08
2023-03-24T09:54:53.866Z,99823.02
2023-03-24T09:57:27.495Z,99820.92
2023-03-24T09:59:56.716Z,99817.52
2023-03-24T10:02:30.079Z,99816.47
2023-03-24T10:04:59.601Z,99808.48
2023-03-24T10:07:59.930Z,99800.08
2023-03-24T10:10:40.982Z,99792.06
2023-03-24T10:13:21.287Z,99792.02
2023-03-24T10:16:18.584Z,99789.13
2023-03-24T10:18:57.168Z,99791.80
2023-03-24T10:21:33.458Z,99788.34
2023-03-24T10:24:14.094Z,99785.00
2023-03-24T10:26:45.182Z,99779.81
2023-03-24T10:29:22.742Z,99776.23
2023-03-24T10:31:57.425Z,99772.91
2023-03-24T10:34:31.079Z,99772.59
2023-03-24T10:37:02.415Z,99764.57
2023-03-24T10:39:44.045Z,99767.21
2023-03-24T10:42:19.622Z,99765.25
2023-03-24T10:44:51.957Z,99763.08
2023-03-24T10:47:26.394Z,99764.02
2023-03-24T10:50:14.046Z,99763.58
2023-03-24T10:52:47.079Z,99767.59
2023-03-24T10:55:19.300Z,99763.13
2023-03-24T10:57:53.941Z,99760.22
2023-03-24T11:00:30.034Z,99753.88
2023-03-24T11:03:05.429Z,99752.96
2023-03-24T11:05:36.818Z,99744.06
2023-03-24T11:08:22.438Z,99739.73
2023-03-24T11:10:50.523Z,99735.75
2023-03-24T11:13:26.709Z,99734.10
2023-03-24T11:16:17.727Z,99729.84
2023-03-24T11:19:03.903Z,99726.91
2023-03-24T11:21:36.462Z,99714.88
2023-03-24T11:24:12.344Z,99714.16
2023-03-24T11:26:44.232Z,99711.77
2023-03-24T11:29:19.132Z,99710.90
2023-03-24T11:31:56.698Z,99706.79
2023-03-24T11:34:34.490Z,99701.54
2023-03-24T11:37:08.445Z,99695.84
2023-03-24T11:39:37.008Z,99691.36
2023-03-24T11:42:11.194Z,99690.64
2023-03-24T11:44:39.458Z,99686.27
2023-03-24T11:47:18.584Z,99685.98
2023-03-24T11:50:01.495Z,99677.77
2023-03-24T11:52:34.939Z,99681.25
2023-03-24T11:55:13.295Z,99668.77
2023-03-24T11:57:47.208Z,99654.63
2023-03-24T12:00:18.739Z,99655.48
2023-03-24T12:03:01.482Z,99657.08
2023-03-24T12:05:38.538Z,99659.04
2023-03-24T12:08:22.995Z,99653.52
2023-03-24T12:11:23.202Z,99649.52
2023-03-24T12:13:53.067Z,99644.67
2023-03-24T12:16:50.987Z,99640.41
2023-03-24T12:19:19.237Z,99642.34
2023-03-24T12:22:15.612Z,99632.54
2023-03-24T12:24:47.126Z,99628.95
2023-03-24T12:27:42.796Z,99640.23
2023-03-24T12:30:25.986Z,99630.34
2023-03-24T12:33:16.297Z,99629.66
2023-03-24T12:36:22.745Z,99623.00
2023-03-24T12:39:04.950Z,99628.16
2023-03-24T12:41:42.111Z,99625.51
2023-03-24T12:44:32.289Z,99623.77
2023-03-24T12:47:06.948Z,99609.09
2023-03-24T12:50:16.513Z,99609.87
2023-03-24T12:53:12.027Z,99618.06
2023-03-24T12:55:51.490Z,99609.13
2023-03-24T12:58:25.932Z,99605.52
2023-03-24T13:01:29.840Z,99602.98
2023-03-24T13:04:07.196Z,99601.98
2023-03-24T13:06:39.211Z,99599.28
2023-03-24T13:09:35.212Z,99603.97
2023-03-24T13:12:26.180Z,99606.98
2023-03-24T13:15:09.531Z,99605.45
2023-03-24T13:17:52.672Z,99601.11
2023-03-24T13:20:33.225Z,99602.69
2023-03-24T13:23:20.505Z,99598.06
2023-03-24T13:26:20.164Z,99596.42
2023-03-24T13:29:49.891Z,99591.16
2023-03-24T13:32:24.498Z,99590.95
2023-03-24T13:34:56.094Z,99593.45
2023-03-24T13:37:29.812Z,99591.58
2023-03-24T13:40:00.868Z,99589.88
2023-03-24T13:42:33.384Z,99588.52
2023-03-24T13:45:05.343Z,99583.54
2023-03-24T13:48:07.518Z,99587.30
2023-03-24T13:50:54.165Z,99580.61
2023-03-24T13:53:37.249Z,99575.65
2023-03-24T13:56:07.969Z,99573.95
2023-03-24T13:59:05.693Z,99571.20
2023-03-24T14:01:42.725Z,99573.27
2023-03-24T14:04:27.939Z,99568.92
2023-03-24T14:06:59.144Z,99566.46
2023-03-24T14:09:30.166Z,99559.37
2023-03-24T14:12:04.806Z,99555.33
2023-03-24T14:15:11.446Z,99557.63
2023-03-24T14:17:49.202Z,99552.82
2023-03-24T14:20:33.245Z,99551.86
2023-03-24T14:23:03.675Z,99547.99
2023-03-24T14:25:34.055Z,99545.48
2023-03-24T14:28:23.174Z,99541.60
2023-03-24T14:31:10.346Z,99541.77
2023-03-24T14:33:41.299Z,99536.56
2023-03-24T14:36:13.220Z,99536.03
2023-03-24T14:38:44.548Z,99533.91
2023-03-24T14:41:16.541Z,99532.89
2023-03-24T14:43:44.663Z,99529.67
2023-03-24T14:46:21.940Z,99533.63
2023-03-24T14:49:04.070Z,99533.55
2023-03-24T14:51:36.910Z,99531.02
2023-03-24T14:54:14.371Z,99529.88
2023-03-24T14:56:45.783Z,99524.75
2023-03-24T14:59:34.383Z,99522.06
2023-03-24T15:02:37.215Z,99529.83
2023-03-24T15:05:31.948Z,99526.37
2023-03-24T15:08:21.894Z,99526.27
2023-03-24T15:10:58.916Z,99522.06
2023-03-24T15:13:43.818Z,99522.98
2023-03-24T15:16:12.043Z,99522.25
2023-03-24T15:19:02.109Z,99522.23
2023-03-24T15:21:35.399Z,99518.64
2023-03-24T15:24:23.489Z,99514.95
2023-03-24T15:27:13.872Z,99506.98
2023-03-24T15:29:43.834Z,99505.77
2023-03-24T15:32:24.183Z,99508.25
2023-03-24T15:34:55.839Z,99507.03
2023-03-24T15:37:25.778Z,99509.84
2023-03-24T15:39:59.372Z,99506.48
2023-03-24T15:42:41.486Z,99504.27
2023-03-24T15:45:26.368Z,99504.77
2023-03-24T15:47:56.154Z,99504.26
2023-03-24T15:50:32.564Z,99503.02
2023-03-24T15:53:03.918Z,99505.98
2023-03-24T15:55:35.094Z,99506.85
2023-03-24T15:58:23.042Z,99511.36
2023-03-24T16:00:59.669Z,99507.36
2023-03-24T16:03:31.014Z,99507.65
2023-03-24T16:05:59.249Z,99502.02
2023-03-24T16:08:41.780Z,99505.00
2023-03-24T16:11:14.780Z,99508.95
2023-03-24T16:13:47.736Z,99508.23
2023-03-24T16:16:16.089Z,99506.89
2023-03-24T16:18:48.796Z,99505.48
2023-03-24T16:21:29.274Z,99505.17
2023-03-24T16:23:58.369Z,99509.41
2023-03-24T16:26:29.639Z,99503.38
2023-03-24T16:32:04.328Z,99501.69
2023-03-24T16:34:32.619Z,99506.20
2023-03-24T16:37:00.779Z,99506.56
2023-03-24T16:39:29.768Z,99508.58
2023-03-24T16:41:58.078Z,99506.48
2023-03-24T16:44:26.642Z,99508.23
2023-03-24T16:46:55.763Z,99506.17
2023-03-24T16:49:24.894Z,99505.65
2023-03-24T16:51:54.038Z,99507.16
2023-03-24T16:54:22.377Z,99508.13
2023-03-24T16:56:50.732Z,99507.22
2023-03-24T16:59:19.893Z,99504.20
2023-03-24T17:01:48.339Z,99508.64
2023-03-24T17:04:19.612Z,99513.60
2023-03-24T17:06:54.663Z,99512.24
2023-03-24T17:09:23.873Z,99516.65
2023-03-24T17:11:55.502Z,99516.55
2023-03-24T17:14:24.178Z,99517.67
2023-03-24T17:16:53.839Z,99512.55
2023-03-24T17:19:24.675Z,99510.73
2023-03-24T17:22:03.607Z,99508.41
2023-03-24T17:24:36.885Z,99509.72
2023-03-24T17:27:10.981Z,99507.92
2023-03-24T17:29:39.397Z,99512.48
2023-03-24T17:32:08.432Z,99513.64
2023-03-24T17:34:38.044Z,99514.02
2023-03-24T17:37:06.577Z,99514.82
2023-03-24T17:39:34.753Z,99513.50
2023-03-24T17:42:03.050Z,99513.13
2023-03-24T17:44:33.911Z,99509.99
2023-03-24T17:47:02.133Z,99505.91
2023-03-24T17:49:30.494Z,99504.52
2023-03-24T17:51:58.944Z,99507.02
2023-03-24T17:54:28.493Z,99503.27
2023-03-24T17:56:56.855Z,99502.11
2023-03-24T17:59:25.168Z,99503.19
2023-03-24T18:01:53.619Z,99501.77
2023-03-24T18:04:24.033Z,99503.91
2023-03-24T18:06:52.378Z,99510.34
2023-03-24T18:09:20.595Z,99506.14
2023-03-24T18:11:48.913Z,99507.04
2023-03-24T18:14:17.397Z,99507.98
2023-03-24T18:16:46.108Z,99513.10
2023-03-24T18:19:14.268Z,99510.64
2023-03-24T18:21:42.869Z,99515.23
2023-03-24T18:24:12.400Z,99512.66
2023-03-24T18:26:40.690Z,99511.93
2023-03-24T18:29:09.088Z,99511.13
2023-03-24T18:31:37.388Z,99511.63
2023-03-24T18:34:05.680Z,99512.05
2023-03-24T18:36:33.897Z,99510.92
2023-03-24T18:39:05.795Z,99513.76
2023-03-24T18:41:37.406Z,99510.84
2023-03-24T18:44:12.707Z,99508.46
2023-03-24T18:46:41.014Z,99510.87
2023-03-24T18:49:14.591Z,99505.13
2023-03-24T18:51:43.734Z,99503.84
2023-03-24T18:54:13.343Z,99502.76
2023-03-24T18:56:42.032Z,99500.05
2023-03-24T18:59:12.001Z,99499.30
2023-03-24T19:01:40.382Z,99495.31
2023-03-24T19:04:09.516Z,99489.63
2023-03-24T19:06:42.426Z,99487.69
2023-03-24T19:09:12.903Z,99490.91
2023-03-24T19:11:43.439Z,99484.77
2023-03-24T19:14:11.991Z,99483.45
2023-03-24T19:16:40.577Z,99478.36
2023-03-24T19:19:10.102Z,99480.53
2023-03-24T19:21:40.670Z,99479.92
2023-03-24T19:24:08.907Z,99476.92
2023-03-24T19:26:38.568Z,99476.97
2023-03-24T19:29:07.010Z,99475.67
2023-03-24T19:31:35.456Z,99473.54
2023-03-24T19:34:03.884Z,99476.71
2023-03-24T19:36:32.294Z,99468.21
2023-03-24T19:39:02.188Z,99470.20
2023-03-24T19:41:30.398Z,99466.48
2023-03-24T19:43:58.674Z,99469.09
2023-03-24T19:46:26.899Z,99469.86
2023-03-24T19:48:55.137Z,99469.58
2023-03-24T19:51:24.434Z,99471.09
2023-03-24T19:53:52.634Z,99464.35
2023-03-24T19:56:22.118Z,99462.90
2023-03-24T19:58:50.443Z,99461.30
2023-03-24T20:01:19.771Z,99459.52
2023-03-24T20:03:48.244Z,99459.80
2023-03-24T20:06:18.519Z,99459.42
2023-03-24T20:08:47.995Z,99454.88
2023-03-24T20:11:16.499Z,99458.73
2023-03-24T20:13:44.653Z,99460.48
2023-03-24T20:16:12.917Z,99461.77
2023-03-24T20:18:41.316Z,99459.84
2023-03-24T20:21:12.283Z,99457.50
2023-03-24T20:23:40.450Z,99456.70
2023-03-24T20:26:08.764Z,99456.05
2023-03-24T20:28:36.937Z,99454.33
2023-03-24T20:31:06.721Z,99456.79
2023-03-24T20:33:35.061Z,99452.95
2023-03-24T20:36:04.979Z,99450.86
2023-03-24T20:38:33.381Z,99448.79
2023-03-24T20:41:05.687Z,99446.94
2023-03-24T20:43:36.392Z,99436.84
2023-03-24T20:46:08.007Z,99439.48
2023-03-24T20:48:36.528Z,99436.95
2023-03-24T20:51:06.014Z,99432.77
2023-03-24T20:53:36.056Z,99428.98
2023-03-24T20:56:09.470Z,99425.84
2023-03-24T20:58:38.524Z,99421.47
2023-03-24T21:01:20.691Z,99417.33
2023-03-24T21:03:51.335Z,99414.69
2023-03-24T21:06:20.848Z,99411.29
2023-03-24T21:08:49.122Z,99406.25
2023-03-24T21:11:17.322Z,99401.24
2023-03-24T21:13:46.050Z,99397.04
2023-03-24T21:16:14.499Z,99397.11
2023-03-24T21:18:42.818Z,99393.46
2023-03-24T21:21:12.783Z,99394.02
2023-03-24T21:23:42.996Z,99388.34
2023-03-24T21:26:18.121Z,99387.73
2023-03-24T21:28:46.770Z,99388.27
2023-03-24T21:31:21.824Z,99388.21
2023-03-24T21:33:51.364Z,99392.21
2023-03-24T21:36:20.269Z,99392.38
2023-03-24T21:38:52.302Z,99390.16
2023-03-24T21:41:21.846Z,99383.58
2023-03-24T21:43:54.618Z,99387.28
2023-03-24T21:46:26.466Z,99389.52
2023-03-24T21:48:59.620Z,99382.80
2023-03-24T21:51:30.841Z,99382.50
2023-03-24T21:54:03.464Z,99378.62
2023-03-24T21:56:33.878Z,99379.14
2023-03-24T21:59:02.360Z,99372.66
2023-03-24T22:01:34.219Z,99376.17
2023-03-24T22:04:03.767Z,99367.16
2023-03-24T22:06:38.003Z,99365.29
2023-03-24T22:09:08.430Z,99368.60
2023-03-24T22:11:42.890Z,99366.64
2023-03-24T22:14:12.845Z,99364.71
2023-03-24T22:16:41.157Z,99366.50
2023-03-24T22:19:09.456Z,99366.17
2023-03-24T22:21:39.520Z,99363.79
2023-03-24T22:24:08.466Z,99366.98
2023-03-24T22:26:36.725Z,99368.31
2023-03-24T22:29:04.945Z,99372.00
2023-03-24T22:31:33.191Z,99368.48
2023-03-24T22:34:01.848Z,99363.31
2023-03-24T22:36:29.967Z,99365.73
2023-03-24T22:38:58.065Z,99361.06
2023-03-24T22:41:26.417Z,99354.98
2023-03-24T22:43:54.721Z,99353.19
2023-03-24T22:46:24.715Z,99352.13
2023-03-24T22:48:52.994Z,99352.86
2023-03-24T22:51:21.609Z,99348.57
2023-03-24T22:53:50.020Z,99344.23
2023-03-24T22:56:18.233Z,99341.71
2023-03-24T22:58:46.409Z,99344.06
2023-03-24T23:01:14.758Z,99341.30
2023-03-24T23:03:43.244Z,99338.96
2023-03-24T23:06:12.123Z,99338.80
2023-03-24T23:08:40.354Z,99334.68
2023-03-24T23:11:09.112Z,99329.15
2023-03-24T23:13:39.071Z,99327.19
2023-03-24T23:16:07.831Z,99322.77
2023-03-24T23:18:37.014Z,99318.52
2023-03-24T23:21:11.596Z,99318.27
2023-03-24T23:23:41.389Z,99317.60
2023-03-24T23:26:26.461Z,99315.77
2023-03-24T23:28:55.163Z,99310.29
2023-03-24T23:31:26.005Z,99307.73
2023-03-24T23:33:58.336Z,99305.95
2023-03-24T23:36:28.630Z,99306.00
2023-03-24T23:38:57.110Z,99309.27
2023-03-24T23:41:25.552Z,99307.34
2023-03-24T23:43:54.057Z,99302.73
2023-03-24T23:46:24.501Z,99302.77
2023-03-24T23:48:52.873Z,99300.80
2023-03-24T23:51:22.382Z,99298.56
2023-03-24T23:53:51.161Z,99297.91
2023-03-24T23:56:23.055Z,99293.09
2023-03-24T23:58:51.285Z,99292.87
